Time;durP1;ratioP1;P1;durP2;ratioP2;P2;SDS_P1;SDS_P2;PMS_P1;PMS_P2;Temp;Humidity;BMP_temperature;BMP_pressure;BME280_temperature;BME280_humidity;BME280_pressure;Samples;Min_cycle;Max_cycle;Signal;HPM_P1;HPM_P2
2022/11/18 00:00:03;;;;;;;;;;;;;;;12.18;70.33;99038.94;5345868;32;34925;-77
2022/11/18 00:03:05;;;;;;;;;;;;;;;12.08;69.36;99037.84;5327358;32;35669;-69
2022/11/18 00:06:08;;;;;;;;;;;;;;;11.52;71.89;99032.69;5307080;32;45419;-76
2022/11/18 00:09:10;;;;;;;;;;;;;;;11.76;71.25;99029.41;5328044;32;35219;-70
2022/11/18 00:15:32;;;;;;;;;;;;;;;11.43;72.77;99014.88;5337544;32;34932;-76
2022/11/18 00:18:34;;;;;;;;;;;;;;;11.40;72.28;99017.72;5322058;32;34367;-77
2022/11/18 00:21:36;;;;;;;;;;;;;;;11.64;71.29;99016.09;5325933;32;44857;-68
2022/11/18 00:24:38;;;;;;;;;;;;;;;11.33;72.29;99019.00;5318884;32;35654;-75
2022/11/18 00:27:40;;;;;;;;;;;;;;;11.51;72.31;99019.63;5326119;32;35713;-77
2022/11/18 00:30:42;;;;;;;;;;;;;;;11.66;70.83;99023.91;5329771;32;35442;-76
2022/11/18 00:33:43;;;;;;;;;;;;;;;11.38;71.62;99017.78;5324159;32;34927;-68
2022/11/18 00:36:46;;;;;;;;;;;;;;;10.91;74.49;99012.91;5338244;32;34640;-69
2022/11/18 00:39:47;;;;;;;;;;;;;;;11.26;72.96;99008.03;5310938;32;35606;-69
2022/11/18 00:42:52;;;;;;;;;;;;;;;11.46;71.66;99006.75;5321342;32;34775;-68
2022/11/18 00:45:54;;;;;;;;;;;;;;;10.65;74.78;99008.41;5316435;32;35038;-69
2022/11/18 00:48:56;;;;;;;;;;;;;;;10.78;74.77;99001.47;5318717;32;35511;-76
2022/11/18 00:51:58;;;;;;;;;;;;;;;10.84;74.01;98985.31;5321579;32;35483;-76
2022/11/18 00:55:00;;;;;;;;;;;;;;;10.92;73.26;98987.47;5313616;32;34219;-77
2022/11/18 00:58:02;;;;;;;;;;;;;;;11.18;72.06;98983.19;5329545;32;35337;-77
2022/11/18 01:01:04;;;;;;;;;;;;;;;11.33;71.66;98983.06;5313734;32;34530;-69
2022/11/18 01:04:06;;;;;;;;;;;;;;;11.98;68.53;98981.47;5337745;32;45304;-76
2022/11/18 01:07:08;;;;;;;;;;;;;;;11.22;70.86;98989.94;5295962;32;34834;-69
2022/11/18 01:10:10;;;;;;;;;;;;;;;10.65;74.07;99001.38;5324351;32;33163;-78
2022/11/18 01:13:18;;;;;;;;;;;;;;;10.74;74.43;98995.53;5326302;32;34909;-78
2022/11/18 01:16:21;;;;;;;;;;;;;;;10.75;74.18;98980.59;5314516;32;34941;-69
2022/11/18 01:19:23;;;;;;;;;;;;;;;11.15;72.77;98986.87;5329396;32;35552;-69
2022/11/18 01:22:25;;;;;;;;;;;;;;;10.89;74.17;98975.38;5311530;32;34645;-68
2022/11/18 01:25:27;;;;;;;;;;;;;;;10.64;74.75;98976.03;5315464;32;35527;-68
2022/11/18 01:28:29;;;;;;;;;;;;;;;10.34;77.22;98975.28;5309113;32;35414;-68
2022/11/18 01:31:31;;;;;;;;;;;;;;;10.56;76.89;98970.38;5313563;32;34959;-77
2022/11/18 01:34:33;;;;;;;;;;;;;;;10.89;76.05;98967.47;5341240;32;34664;-68
2022/11/18 01:37:35;;;;;;;;;;;;;;;11.25;73.96;98956.37;5327959;32;45315;-70
2022/11/18 01:40:37;;;;;;;;;;;;;;;10.98;75.00;98971.31;5345586;32;35487;-68
2022/11/18 01:43:49;;;;;;;;;;;;;;;11.76;70.73;98968.88;5330546;32;34995;-76
2022/11/18 01:46:51;;;;;;;;;;;;;;;10.16;77.35;98974.56;5342332;32;35794;-68
2022/11/18 01:49:53;;;;;;;;;;;;;;;10.48;76.73;98962.97;5327530;32;36015;-74
2022/11/18 01:52:56;;;;;;;;;;;;;;;10.43;77.10;98969.44;5314005;32;35243;-75
2022/11/18 01:55:59;;;;;;;;;;;;;;;10.74;76.19;98966.63;5323160;32;35362;-75
2022/11/18 01:59:02;;;;;;;;;;;;;;;10.54;76.25;98973.13;5319004;32;34382;-68
2022/11/18 02:02:05;;;;;;;;;;;;;;;11.28;73.59;98984.28;5337641;32;35061;-69
2022/11/18 02:05:07;;;;;;;;;;;;;;;11.18;72.23;98983.19;5316408;32;44573;-68
2022/11/18 02:08:09;;;;;;;;;;;;;;;10.99;73.47;98989.59;5324831;32;35549;-68
2022/11/18 02:11:49;;;;;;;;;;;;;;;10.69;74.14;98981.00;5335026;32;34295;-77
2022/11/18 02:14:36;;;;;;;;;;;;;;;10.36;76.03;98976.84;5324218;32;35147;-68
2022/11/18 02:17:41;;;;;;;;;;;;;;;10.52;75.32;98974.16;5336931;32;45332;-76
2022/11/18 02:20:43;;;;;;;;;;;;;;;10.35;75.39;98975.19;5325174;32;35436;-69
2022/11/18 02:24:04;;;;;;;;;;;;;;;10.28;77.03;98977.31;5343369;32;35001;-68
2022/11/18 02:27:24;;;;;;;;;;;;;;;10.33;77.28;98974.44;5333313;32;45322;-67
2022/11/18 02:30:26;;;;;;;;;;;;;;;10.40;76.54;98973.13;5331992;32;34966;-69
2022/11/18 02:33:34;;;;;;;;;;;;;;;10.37;76.26;98964.56;5344704;32;34517;-77
2022/11/18 02:36:39;;;;;;;;;;;;;;;11.08;74.39;98973.25;5311123;32;47206;-69
2022/11/18 02:39:52;;;;;;;;;;;;;;;11.39;72.23;98961.59;5339254;32;35591;-77
2022/11/18 02:42:55;;;;;;;;;;;;;;;11.50;71.17;98946.91;5324163;32;35187;-69
2022/11/18 02:46:07;;;;;;;;;;;;;;;11.73;70.18;98943.59;5304963;32;35471;-70
2022/11/18 02:49:13;;;;;;;;;;;;;;;11.57;70.86;98945.56;5334133;32;44515;-68
2022/11/18 02:52:15;;;;;;;;;;;;;;;11.66;70.18;98926.53;5321023;32;34912;-76
2022/11/18 02:55:17;;;;;;;;;;;;;;;11.56;70.89;98926.28;5335114;32;35774;-68
2022/11/18 02:58:19;;;;;;;;;;;;;;;11.16;73.07;98917.53;5329495;32;35788;-67
2022/11/18 03:01:28;;;;;;;;;;;;;;;11.61;70.99;98929.47;5310212;32;34862;-70
2022/11/18 03:04:30;;;;;;;;;;;;;;;11.54;71.35;98929.97;5337606;32;36731;-77
2022/11/18 03:07:33;;;;;;;;;;;;;;;10.47;75.21;98921.06;5300493;32;35166;-76
2022/11/18 03:10:37;;;;;;;;;;;;;;;10.10;79.12;98914.53;5337427;32;45260;-76
2022/11/18 03:14:02;;;;;;;;;;;;;;;10.30;77.35;98912.44;5323179;32;35491;-68
2022/11/18 03:17:12;;;;;;;;;;;;;;;10.24;77.88;98915.44;5316190;32;34803;-69
2022/11/18 03:20:20;;;;;;;;;;;;;;;9.68;80.03;98918.81;5315963;32;44817;-76
2022/11/18 03:23:28;;;;;;;;;;;;;;;11.12;75.20;98914.25;5306269;32;34943;-68
2022/11/18 03:26:31;;;;;;;;;;;;;;;10.68;75.19;98919.72;5326509;32;34781;-69
2022/11/18 03:29:33;;;;;;;;;;;;;;;10.60;77.25;98926.41;5310068;32;34296;-70
2022/11/18 03:32:37;;;;;;;;;;;;;;;10.83;75.76;98921.41;5336603;32;44868;-69
2022/11/18 03:35:40;;;;;;;;;;;;;;;10.50;77.47;98934.03;5301309;32;35299;-68
2022/11/18 03:38:43;;;;;;;;;;;;;;;10.34;76.73;98938.50;5316027;32;34693;-76
2022/11/18 03:41:47;;;;;;;;;;;;;;;10.39;78.11;98931.19;5326658;32;35154;-77
2022/11/18 03:44:53;;;;;;;;;;;;;;;10.24;79.59;98930.34;5322105;32;35121;-69
2022/11/18 03:47:57;;;;;;;;;;;;;;;10.64;77.95;98933.16;5340311;32;34912;-69
2022/11/18 03:51:06;;;;;;;;;;;;;;;11.35;74.36;98938.25;5308533;32;35137;-76
2022/11/18 03:54:12;;;;;;;;;;;;;;;11.07;74.18;98945.25;5326322;32;46616;-77
2022/11/18 03:57:16;;;;;;;;;;;;;;;10.61;76.54;98946.47;5307650;32;37244;-76
2022/11/18 04:00:19;;;;;;;;;;;;;;;10.46;77.29;98949.09;5314380;32;34952;-77
2022/11/18 04:03:21;;;;;;;;;;;;;;;10.37;77.55;98948.81;5327566;32;34667;-76
2022/11/18 04:06:42;;;;;;;;;;;;;;;9.89;79.98;98950.81;5289545;32;34553;-68
2022/11/18 04:09:50;;;;;;;;;;;;;;;10.18;78.75;98946.44;5323249;32;43113;-76
2022/11/18 04:12:58;;;;;;;;;;;;;;;9.41;81.27;98943.06;5304629;32;34807;-76
2022/11/18 04:16:08;;;;;;;;;;;;;;;9.58;81.44;98930.75;5322545;32;45058;-78
2022/11/18 04:19:10;;;;;;;;;;;;;;;9.91;79.35;98922.69;5329064;32;34370;-76
2022/11/18 04:22:12;;;;;;;;;;;;;;;9.75;79.09;98909.63;5304286;32;34419;-68
2022/11/18 04:25:14;;;;;;;;;;;;;;;9.95;80.73;98898.78;5324951;32;35054;-76
2022/11/18 04:28:16;;;;;;;;;;;;;;;11.08;73.86;98894.38;5316799;32;35092;-77
2022/11/18 04:31:18;;;;;;;;;;;;;;;10.25;76.51;98898.75;5321087;32;34811;-77
2022/11/18 04:34:20;;;;;;;;;;;;;;;10.21;78.13;98886.72;5320983;32;36229;-69
2022/11/18 04:37:21;;;;;;;;;;;;;;;9.36;81.18;98876.94;5309142;32;35456;-68
2022/11/18 04:40:23;;;;;;;;;;;;;;;9.66;81.19;98876.94;5323348;32;36277;-68
2022/11/18 04:43:25;;;;;;;;;;;;;;;9.70;80.60;98878.41;5320386;32;34128;-77
2022/11/18 04:46:27;;;;;;;;;;;;;;;9.94;79.66;98883.13;5325539;32;35058;-76
2022/11/18 04:49:29;;;;;;;;;;;;;;;10.01;80.13;98887.09;5313491;32;35146;-68
2022/11/18 04:52:31;;;;;;;;;;;;;;;10.63;78.21;98897.31;5340256;32;34575;-78
2022/11/18 04:55:36;;;;;;;;;;;;;;;10.21;77.88;98886.72;5328210;32;35561;-68
2022/11/18 04:58:38;;;;;;;;;;;;;;;10.70;76.85;98901.25;5328050;32;47052;-77
2022/11/18 05:01:40;;;;;;;;;;;;;;;10.01;79.91;98910.72;5334416;32;34760;-69
2022/11/18 05:04:42;;;;;;;;;;;;;;;10.36;78.14;98931.38;5311208;32;35663;-75
2022/11/18 05:07:44;;;;;;;;;;;;;;;10.58;76.64;98922.09;5313013;32;34706;-77
2022/11/18 05:10:46;;;;;;;;;;;;;;;10.36;77.75;98910.37;5306567;32;34746;-76
2022/11/18 05:13:48;;;;;;;;;;;;;;;10.81;77.05;98918.00;5321259;32;34793;-76
2022/11/18 05:16:50;;;;;;;;;;;;;;;11.06;73.71;98905.91;5321898;32;35072;-76
2022/11/18 05:19:52;;;;;;;;;;;;;;;10.82;74.34;98893.44;5328360;32;34604;-76
2022/11/18 05:22:54;;;;;;;;;;;;;;;10.58;75.23;98884.47;5344614;32;34999;-68
2022/11/18 05:25:56;;;;;;;;;;;;;;;10.40;77.49;98882.97;5324658;32;34627;-77
2022/11/18 05:29:03;;;;;;;;;;;;;;;10.67;76.88;98893.53;5336927;32;34415;-69
2022/11/18 05:32:05;;;;;;;;;;;;;;;10.40;77.82;98896.13;5309997;32;34915;-77
2022/11/18 05:35:07;;;;;;;;;;;;;;;11.49;73.99;98892.59;5322052;32;44907;-68
2022/11/18 05:38:08;;;;;;;;;;;;;;;11.02;74.35;98894.78;5339244;32;35219;-68
2022/11/18 05:43:09;;;;;;;;;;;;;;;11.64;72.83;98876.62;5327856;32;35053;-68
2022/11/18 05:44:33;;;;;;;;;;;;;;;11.69;72.28;98884.22;5346667;32;34680;-68
2022/11/18 05:47:58;;;;;;;;;;;;;;;11.37;73.74;98881.94;5325949;32;35683;-68
2022/11/18 05:50:56;;;;;;;;;;;;;;;10.23;77.32;98873.50;5337224;32;35152;-76
2022/11/18 05:53:58;;;;;;;;;;;;;;;11.35;73.52;98864.59;5342442;32;35070;-76
2022/11/18 05:57:00;;;;;;;;;;;;;;;11.12;75.66;98890.59;5330109;32;34119;-77
2022/11/18 06:00:02;;;;;;;;;;;;;;;11.62;72.78;98888.22;5347658;32;35492;-68
2022/11/18 06:03:06;;;;;;;;;;;;;;;11.13;74.99;98889.66;5332173;32;34558;-69
2022/11/18 06:06:08;;;;;;;;;;;;;;;11.20;75.11;98884.81;5310388;32;44843;-77
2022/11/18 06:09:10;;;;;;;;;;;;;;;11.08;75.93;98886.50;5319115;32;35530;-76
2022/11/18 06:12:16;;;;;;;;;;;;;;;11.49;73.25;98888.19;5322906;32;35498;-77
2022/11/18 06:15:28;;;;;;;;;;;;;;;11.55;73.29;98894.81;5310137;32;34873;-69
2022/11/18 06:18:30;;;;;;;;;;;;;;;10.74;77.04;98889.56;5320310;32;35327;-70
2022/11/18 06:21:32;;;;;;;;;;;;;;;11.12;75.38;98897.63;5340400;32;35186;-76
2022/11/18 06:24:34;;;;;;;;;;;;;;;11.64;72.29;98892.41;5321131;32;35347;-77
2022/11/18 06:27:36;;;;;;;;;;;;;;;11.53;72.83;98894.94;5335696;32;46265;-77
2022/11/18 06:30:38;;;;;;;;;;;;;;;11.36;73.69;98888.16;5314649;32;34909;-77
2022/11/18 06:33:40;;;;;;;;;;;;;;;11.27;73.15;98893.16;5317298;32;34857;-69
2022/11/18 06:36:42;;;;;;;;;;;;;;;11.06;74.64;98892.78;5320907;32;35351;-76
2022/11/18 06:39:44;;;;;;;;;;;;;;;11.26;73.57;98887.06;5317144;32;35354;-77
2022/11/18 06:49:36;;;;;;;;;;;;;;;11.17;74.65;98884.19;5327428;32;44429;-76
2022/11/18 06:52:38;;;;;;;;;;;;;;;11.34;73.10;98884.78;5345401;32;35031;-69
2022/11/18 06:55:40;;;;;;;;;;;;;;;11.19;74.15;98884.94;5312042;32;35160;-78
2022/11/18 06:58:42;;;;;;;;;;;;;;;10.77;76.26;98890.25;5335712;32;36141;-76
2022/11/18 07:01:44;;;;;;;;;;;;;;;11.21;74.83;98891.81;5318406;32;34911;-69
2022/11/18 07:04:46;;;;;;;;;;;;;;;11.21;73.75;98890.97;5333689;32;35732;-68
2022/11/18 07:07:48;;;;;;;;;;;;;;;11.22;74.22;98887.38;5329107;32;35824;-77
2022/11/18 07:10:50;;;;;;;;;;;;;;;10.99;75.29;98889.69;5320289;32;35234;-77
2022/11/18 07:13:53;;;;;;;;;;;;;;;10.84;76.45;98886.28;5330859;32;35042;-77
2022/11/18 07:16:54;;;;;;;;;;;;;;;11.48;73.25;98891.75;5324952;32;34349;-68
2022/11/18 07:19:56;;;;;;;;;;;;;;;10.67;77.56;98896.16;5350972;32;34964;-77
2022/11/18 07:22:58;;;;;;;;;;;;;;;11.17;74.44;98889.47;5332324;32;34836;-76
2022/11/18 07:26:00;;;;;;;;;;;;;;;11.58;72.37;98886.72;5338197;32;35134;-76
2022/11/18 07:29:02;;;;;;;;;;;;;;;11.02;74.09;98878.16;5327952;32;35709;-78
2022/11/18 07:32:05;;;;;;;;;;;;;;;11.29;72.75;98881.63;5327122;32;35177;-69
2022/11/18 07:35:07;;;;;;;;;;;;;;;10.04;76.68;98882.47;5340166;32;45379;-78
2022/11/18 07:38:09;;;;;;;;;;;;;;;9.97;80.17;98877.69;5319218;32;34692;-69
2022/11/18 07:41:31;;;;;;;;;;;;;;;10.77;76.99;98876.25;5333271;32;34343;-78
2022/11/18 07:44:33;;;;;;;;;;;;;;;11.17;74.56;98871.06;5326502;32;34519;-77
2022/11/18 07:47:35;;;;;;;;;;;;;;;9.77;80.03;98866.63;5346137;32;44943;-69
2022/11/18 07:50:37;;;;;;;;;;;;;;;9.46;81.81;98858.88;5345569;32;34707;-76
2022/11/18 07:53:45;;;;;;;;;;;;;;;10.56;76.17;98839.91;5325820;32;34652;-69
2022/11/18 07:56:47;;;;;;;;;;;;;;;10.44;77.15;98834.59;5346468;32;34743;-76
2022/11/18 07:59:49;;;;;;;;;;;;;;;11.02;75.58;98826.44;5335251;32;35398;-77
2022/11/18 08:02:51;;;;;;;;;;;;;;;11.04;73.51;98823.69;5358529;32;35343;-76
2022/11/18 08:05:59;;;;;;;;;;;;;;;11.74;71.24;98823.38;5311978;32;34707;-69
2022/11/18 08:09:01;;;;;;;;;;;;;;;11.03;73.47;98816.75;5336362;32;34775;-78
2022/11/18 08:12:03;;;;;;;;;;;;;;;10.43;75.95;98833.75;5347141;32;34180;-69
2022/11/18 08:15:05;;;;;;;;;;;;;;;11.38;72.83;98853.84;5332207;32;35611;-68
2022/11/18 08:18:07;;;;;;;;;;;;;;;11.89;69.35;98853.94;5338457;32;44818;-75
2022/11/18 08:21:14;;;;;;;;;;;;;;;11.96;69.07;98847.28;5328778;32;35647;-77
2022/11/18 08:24:16;;;;;;;;;;;;;;;11.90;68.95;98845.09;5341290;32;35439;-68
2022/11/18 08:27:18;;;;;;;;;;;;;;;11.54;70.81;98848.41;5345467;32;35134;-77
2022/11/18 08:30:20;;;;;;;;;;;;;;;11.13;72.73;98855.47;5326821;32;35242;-76
2022/11/18 08:33:22;;;;;;;;;;;;;;;11.27;71.85;98851.94;5340947;32;35064;-76
2022/11/18 08:36:25;;;;;;;;;;;;;;;11.69;70.35;98841.25;5327326;32;35313;-69
2022/11/18 08:39:27;;;;;;;;;;;;;;;11.59;70.15;98836.63;5353787;32;34522;-68
2022/11/18 08:42:28;;;;;;;;;;;;;;;11.58;70.61;98831.47;5345646;32;35082;-75
2022/11/18 08:45:35;;;;;;;;;;;;;;;11.24;71.82;98831.09;5353787;32;36968;-77
2022/11/18 08:48:37;;;;;;;;;;;;;;;11.54;70.94;98824.75;5348095;32;35168;-69
2022/11/18 08:51:39;;;;;;;;;;;;;;;11.64;70.03;98816.09;5343634;32;35531;-67
2022/11/18 08:54:41;;;;;;;;;;;;;;;11.47;70.86;98816.41;5345730;32;34563;-68
2022/11/18 08:57:43;;;;;;;;;;;;;;;11.37;71.12;98817.97;5326770;32;34341;-69
2022/11/18 09:00:45;;;;;;;;;;;;;;;10.76;72.43;98804.47;5349118;32;34933;-69
2022/11/18 09:03:47;;;;;;;;;;;;;;;11.58;70.42;98805.97;5326383;32;35515;-67
2022/11/18 09:06:49;;;;;;;;;;;;;;;10.89;73.38;98801.88;5318790;32;35539;-68
2022/11/18 09:09:51;;;;;;;;;;;;;;;10.94;72.77;98798.94;5331331;32;36503;-77
2022/11/18 09:12:53;;;;;;;;;;;;;;;10.74;75.72;98802.88;5336083;32;35588;-68
2022/11/18 09:15:58;;;;;;;;;;;;;;;10.62;76.40;98812.37;5346826;32;34957;-76
2022/11/18 09:19:00;;;;;;;;;;;;;;;10.29;76.69;98816.19;5326144;32;35191;-77
2022/11/18 09:22:22;;;;;;;;;;;;;;;10.94;75.36;98812.91;5337411;32;34689;-76
2022/11/18 09:25:24;;;;;;;;;;;;;;;11.12;73.07;98816.12;5325885;32;35746;-77
2022/11/18 09:28:26;;;;;;;;;;;;;;;10.95;74.71;98808.50;5329247;32;34799;-69
2022/11/18 09:31:28;;;;;;;;;;;;;;;10.30;77.02;98806.53;5339558;32;34792;-76
2022/11/18 09:34:30;;;;;;;;;;;;;;;10.79;77.70;98804.25;5327411;32;35437;-68
2022/11/18 09:37:32;;;;;;;;;;;;;;;11.57;71.85;98800.84;5325388;32;34270;-69
2022/11/18 09:40:53;;;;;;;;;;;;;;;10.65;75.23;98799.06;5311356;32;34340;-76
2022/11/18 09:43:55;;;;;;;;;;;;;;;11.62;70.99;98782.94;5352506;32;35533;-68
2022/11/18 09:47:16;;;;;;;;;;;;;;;10.84;73.36;98789.03;5340776;32;35440;-77
2022/11/18 09:50:19;;;;;;;;;;;;;;;10.56;75.72;98791.75;5332020;32;34925;-77
2022/11/18 09:53:41;;;;;;;;;;;;;;;10.59;76.65;98786.31;5345958;32;44862;-77
2022/11/18 09:56:43;;;;;;;;;;;;;;;10.44;76.76;98776.81;5333406;32;34843;-68
2022/11/18 09:59:45;;;;;;;;;;;;;;;10.45;77.36;98784.56;5337957;32;35143;-76
2022/11/18 10:02:50;;;;;;;;;;;;;;;10.23;79.29;98776.34;5338185;32;34957;-69
2022/11/18 10:06:12;;;;;;;;;;;;;;;10.57;76.67;98762.78;5320130;32;35174;-76
2022/11/18 10:09:22;;;;;;;;;;;;;;;10.68;76.96;98754.19;5327705;32;35873;-77
2022/11/18 10:12:27;;;;;;;;;;;;;;;11.37;74.15;98745.16;5324271;32;35601;-69
2022/11/18 10:15:37;;;;;;;;;;;;;;;11.17;74.16;98748.31;5351113;32;34047;-78
2022/11/18 10:18:41;;;;;;;;;;;;;;;10.96;74.80;98752.38;5328095;32;44443;-67
2022/11/18 10:22:04;;;;;;;;;;;;;;;10.26;76.78;98739.41;5330374;32;35311;-68
2022/11/18 10:25:16;;;;;;;;;;;;;;;10.60;77.44;98732.81;5335804;32;35031;-68
2022/11/18 10:28:28;;;;;;;;;;;;;;;10.46;77.87;98735.50;5330404;32;35428;-76
2022/11/18 10:31:30;;;;;;;;;;;;;;;10.50;75.63;98729.97;5349194;32;35142;-76
2022/11/18 10:34:33;;;;;;;;;;;;;;;10.43;78.42;98717.31;5343664;32;35456;-76
2022/11/18 10:37:36;;;;;;;;;;;;;;;10.53;76.64;98713.16;5328962;32;34743;-69
2022/11/18 10:40:59;;;;;;;;;;;;;;;10.87;74.66;98718.81;5344624;32;35966;-67
2022/11/18 10:44:01;;;;;;;;;;;;;;;11.34;70.92;98716.44;5341755;32;35237;-67
2022/11/18 10:47:25;;;;;;;;;;;;;;;10.70;73.49;98705.00;5357059;32;45262;-76
2022/11/18 10:50:27;;;;;;;;;;;;;;;11.10;73.22;98715.47;5339804;32;34469;-77
2022/11/18 10:53:36;;;;;;;;;;;;;;;10.64;76.40;98721.19;5330634;32;34790;-77
2022/11/18 10:56:45;;;;;;;;;;;;;;;11.17;72.87;98714.13;5338375;32;44754;-69
2022/11/18 10:59:51;;;;;;;;;;;;;;;10.68;74.85;98717.38;5325308;32;34575;-69
2022/11/18 11:02:53;;;;;;;;;;;;;;;10.97;73.25;98718.09;5330576;32;36238;-75
2022/11/18 11:06:17;;;;;;;;;;;;;;;11.03;71.69;98716.84;5314673;32;34949;-77
2022/11/18 11:09:26;;;;;;;;;;;;;;;11.23;70.58;98711.06;5324285;32;35078;-76
2022/11/18 11:12:30;;;;;;;;;;;;;;;11.06;71.67;98721.88;5356349;32;35216;-68
2022/11/18 11:15:36;;;;;;;;;;;;;;;9.77;77.17;98703.09;5332945;32;35105;-69
2022/11/18 11:18:41;;;;;;;;;;;;;;;9.54;79.36;98709.78;5344490;32;44873;-76
2022/11/18 11:21:43;;;;;;;;;;;;;;;10.83;72.93;98718.19;5323302;32;34906;-69
2022/11/18 11:24:45;;;;;;;;;;;;;;;11.31;71.12;98716.66;5330630;32;35215;-68
2022/11/18 11:27:48;;;;;;;;;;;;;;;11.06;70.91;98721.88;5328734;32;36571;-68
2022/11/18 11:31:16;;;;;;;;;;;;;;;11.29;71.56;98717.72;5331395;32;44950;-68
2022/11/18 11:34:32;;;;;;;;;;;;;;;10.27;76.86;98723.56;5352032;32;35121;-67
2022/11/18 11:37:45;;;;;;;;;;;;;;;11.54;71.34;98724.75;5336506;32;35330;-77
2022/11/18 11:40:53;;;;;;;;;;;;;;;10.65;75.87;98732.53;5340877;32;35741;-76
2022/11/18 11:44:06;;;;;;;;;;;;;;;10.17;77.75;98738.16;5331211;32;35335;-68
2022/11/18 11:51:07;;;;;;;;;;;;;;;9.86;78.33;98734.03;5344323;32;44890;-76
2022/11/18 11:54:31;;;;;;;;;;;;;;;9.41;81.86;98721.97;5314836;32;45199;-76
2022/11/18 11:57:37;;;;;;;;;;;;;;;9.92;80.19;98725.78;5335225;32;34929;-77
2022/11/18 12:00:40;;;;;;;;;;;;;;;10.07;80.28;98726.59;5354644;32;44943;-68
2022/11/18 12:03:45;;;;;;;;;;;;;;;9.26;84.46;98730.72;5327410;32;33856;-68
2022/11/18 12:06:52;;;;;;;;;;;;;;;9.19;84.73;98723.25;5328805;32;37574;-76
2022/11/18 12:10:00;;;;;;;;;;;;;;;9.58;83.03;98724.38;5335588;32;37219;-77
2022/11/18 12:13:12;;;;;;;;;;;;;;;9.71;82.22;98725.31;5341601;32;35667;-68
2022/11/18 12:16:28;;;;;;;;;;;;;;;9.35;85.22;98723.19;5354092;32;44580;-68
2022/11/18 12:19:30;;;;;;;;;;;;;;;9.06;85.25;98713.59;5338961;32;35170;-77
2022/11/18 12:22:50;;;;;;;;;;;;;;;10.22;81.36;98699.34;5342127;32;34393;-68
2022/11/18 12:25:54;;;;;;;;;;;;;;;10.50;77.81;98703.69;5342347;32;34922;-77
2022/11/18 12:28:55;;;;;;;;;;;;;;;9.54;79.90;98699.31;5332008;32;35434;-67
2022/11/18 12:31:57;;;;;;;;;;;;;;;9.85;79.34;98695.59;5348320;32;35793;-68
2022/11/18 12:35:12;;;;;;;;;;;;;;;9.69;78.62;98695.72;5323428;32;34670;-69
2022/11/18 12:38:27;;;;;;;;;;;;;;;9.13;81.08;98686.91;5346352;32;47456;-70
2022/11/18 12:44:58;;;;;;;;;;;;;;;9.19;83.20;98681.31;5335932;32;35663;-76
2022/11/18 12:48:00;;;;;;;;;;;;;;;9.68;79.91;98677.47;5350291;32;35448;-76
2022/11/18 12:51:10;;;;;;;;;;;;;;;9.04;81.56;98679.59;5337665;32;34742;-77
2022/11/18 12:54:20;;;;;;;;;;;;;;;9.19;81.83;98681.31;5347195;32;44872;-69
2022/11/18 12:57:27;;;;;;;;;;;;;;;10.04;78.38;98680.34;5333615;32;34743;-76
2022/11/18 13:00:29;;;;;;;;;;;;;;;9.52;80.17;98687.19;5330368;32;35303;-68
2022/11/18 13:03:32;;;;;;;;;;;;;;;9.63;78.99;98680.34;5337194;32;35317;-67
2022/11/18 13:06:34;;;;;;;;;;;;;;;9.78;80.33;98679.38;5297651;32;34643;-67
2022/11/18 13:09:36;;;;;;;;;;;;;;;9.10;79.98;98684.47;5347552;32;44706;-68
2022/11/18 13:12:38;;;;;;;;;;;;;;;8.95;81.61;98695.88;5315618;32;35403;-68
2022/11/18 13:19:04;;;;;;;;;;;;;;;9.45;77.80;98707.72;5326537;32;34381;-76
2022/11/18 13:25:35;;;;;;;;;;;;;;;9.75;78.36;98720.72;5342083;32;46955;-68
2022/11/18 13:28:38;;;;;;;;;;;;;;;9.55;78.02;98734.22;5315280;32;34320;-68
2022/11/18 13:31:39;;;;;;;;;;;;;;;8.79;80.86;98731.78;5334435;32;35098;-68
2022/11/18 13:34:51;;;;;;;;;;;;;;;8.93;80.69;98734.41;5335757;32;35959;-76
2022/11/18 13:38:00;;;;;;;;;;;;;;;9.42;78.38;98740.22;5320816;32;36061;-75
2022/11/18 13:41:07;;;;;;;;;;;;;;;9.67;78.71;98736.13;5338662;32;34948;-78
2022/11/18 13:44:19;;;;;;;;;;;;;;;9.65;78.18;98733.56;5322796;32;45288;-69
2022/11/18 13:47:30;;;;;;;;;;;;;;;8.91;81.36;98739.75;5342971;32;35401;-76
2022/11/18 13:50:36;;;;;;;;;;;;;;;9.37;79.56;98728.31;5312722;32;36328;-68
2022/11/18 13:53:38;;;;;;;;;;;;;;;9.46;79.67;98735.63;5325282;32;44549;-68
2022/11/18 13:56:39;;;;;;;;;;;;;;;9.66;78.34;98739.66;5341432;32;35054;-76
2022/11/18 13:59:41;;;;;;;;;;;;;;;10.50;75.25;98729.13;5333660;32;35029;-76
2022/11/18 14:02:45;;;;;;;;;;;;;;;9.81;77.48;98740.50;5345117;32;35132;-68
2022/11/18 14:05:53;;;;;;;;;;;;;;;9.76;76.22;98735.53;5309230;32;34657;-77
2022/11/18 14:09:04;;;;;;;;;;;;;;;9.95;76.11;98722.94;5316447;32;35334;-76
2022/11/18 14:12:20;;;;;;;;;;;;;;;9.90;77.57;98724.16;5329972;32;44865;-75
2022/11/18 14:15:32;;;;;;;;;;;;;;;10.08;77.19;98724.81;5324390;32;35217;-76
2022/11/18 14:18:36;;;;;;;;;;;;;;;10.64;74.59;98723.81;5327220;32;45798;-70
2022/11/18 14:21:38;;;;;;;;;;;;;;;10.08;76.40;98732.69;5315146;32;34976;-71
2022/11/18 14:24:40;;;;;;;;;;;;;;;9.21;79.96;98731.88;5334886;32;35070;-69
2022/11/18 14:27:50;;;;;;;;;;;;;;;10.32;75.97;98725.91;5319284;32;35255;-76
2022/11/18 14:30:56;;;;;;;;;;;;;;;10.75;74.14;98729.19;5319576;32;34844;-77
2022/11/18 14:34:05;;;;;;;;;;;;;;;9.39;79.37;98729.91;5336873;32;35242;-69
2022/11/18 14:37:11;;;;;;;;;;;;;;;9.93;77.28;98737.13;5314886;32;44522;-77
2022/11/18 14:40:13;;;;;;;;;;;;;;;10.34;75.94;98733.69;5334751;32;34338;-69
2022/11/18 14:43:15;;;;;;;;;;;;;;;11.10;70.78;98737.34;5321671;32;35461;-68
2022/11/18 14:46:17;;;;;;;;;;;;;;;10.63;72.38;98734.44;5330864;32;35601;-69
2022/11/18 14:49:20;;;;;;;;;;;;;;;10.22;76.08;98730.00;5332222;32;35553;-68
2022/11/18 14:52:23;;;;;;;;;;;;;;;10.19;75.11;98738.09;5321554;32;34948;-69
2022/11/18 14:55:25;;;;;;;;;;;;;;;9.84;77.23;98735.87;5323549;32;36985;-76
2022/11/18 14:58:27;;;;;;;;;;;;;;;10.02;76.91;98734.75;5314855;32;34859;-76
2022/11/18 15:01:29;;;;;;;;;;;;;;;9.87;76.63;98730.47;5337502;32;33654;-68
2022/11/18 15:04:31;;;;;;;;;;;;;;;9.83;77.27;98733.38;5318493;32;35025;-68
2022/11/18 15:07:33;;;;;;;;;;;;;;;9.91;78.76;98729.31;5306443;32;35194;-76
2022/11/18 15:10:36;;;;;;;;;;;;;;;10.16;76.92;98720.75;5322513;32;44971;-76
2022/11/18 15:13:38;;;;;;;;;;;;;;;10.80;74.48;98716.59;5323983;32;35891;-69
2022/11/18 15:16:40;;;;;;;;;;;;;;;10.64;74.29;98717.72;5333661;32;34313;-69
2022/11/18 15:19:41;;;;;;;;;;;;;;;11.26;71.52;98710.00;5328354;32;34946;-70
2022/11/18 15:22:43;;;;;;;;;;;;;;;11.13;71.23;98724.00;5334934;32;35057;-69
2022/11/18 15:25:45;;;;;;;;;;;;;;;10.11;74.88;98727.22;5322879;32;34900;-67
2022/11/18 15:28:47;;;;;;;;;;;;;;;10.73;72.96;98731.06;5313111;32;34942;-76
2022/11/18 15:31:50;;;;;;;;;;;;;;;11.30;69.95;98727.28;5322034;32;36686;-79
2022/11/18 15:34:51;;;;;;;;;;;;;;;11.15;70.06;98731.81;5309142;32;34392;-76
2022/11/18 15:37:53;;;;;;;;;;;;;;;9.97;74.34;98730.72;5323402;32;36451;-77
2022/11/18 15:40:56;;;;;;;;;;;;;;;11.08;71.01;98736.63;5320358;32;35302;-67
2022/11/18 15:43:58;;;;;;;;;;;;;;;10.02;75.67;98734.75;5328794;32;34526;-75
2022/11/18 15:47:00;;;;;;;;;;;;;;;10.37;73.50;98736.97;5297954;32;34187;-76
2022/11/18 15:50:02;;;;;;;;;;;;;;;10.88;71.83;98737.09;5323236;32;35655;-69
2022/11/18 15:53:04;;;;;;;;;;;;;;;10.74;72.19;98729.28;5322556;32;34819;-75
2022/11/18 15:56:13;;;;;;;;;;;;;;;10.83;73.27;98742.69;5322222;32;45203;-68
2022/11/18 15:59:15;;;;;;;;;;;;;;;11.03;70.25;98735.25;5336659;32;35222;-77
2022/11/18 16:02:16;;;;;;;;;;;;;;;10.73;70.68;98735.50;5328822;32;34946;-69
2022/11/18 16:05:18;;;;;;;;;;;;;;;9.81;74.63;98748.38;5318848;32;37261;-76
2022/11/18 16:08:20;;;;;;;;;;;;;;;9.90;76.17;98755.66;5311302;32;37363;-77
2022/11/18 16:15:41;;;;;;;;;;;;;;;11.15;71.10;98752.00;5320563;32;44378;-69
2022/11/18 16:18:04;;;;;;;;;;;;;;;10.67;72.15;98751.66;5317219;32;35517;-68
2022/11/18 16:21:06;;;;;;;;;;;;;;;10.08;74.16;98758.94;5339771;32;47224;-76
2022/11/18 16:24:10;;;;;;;;;;;;;;;9.61;77.96;98755.69;5310383;32;34600;-77
2022/11/18 16:27:12;;;;;;;;;;;;;;;9.78;77.81;98755.47;5315891;32;35081;-77
2022/11/18 16:33:54;;;;;;;;;;;;;;;10.07;76.29;98765.13;5247817;33;34909;-76